Time,TemperatureF,DewpointF,PressureIn,WindDirection,WindDirectionDegrees,WindSpeedMPH,WindSpeedGustMPH,Humidity,HourlyPrecipIn,Conditions,Clouds,dailyrainin,SoftwareType,DateUTC
2013-05-29 00:00:00,63.1,61.1,28.54,NW,315,2.3,2.3,93,0.00,,,0.00,WeatherDisplay:10.37,2013-05-29 05:00:00,
2013-05-29 00:05:00,63.0,60.9,28.54,NW,315,1.2,1.2,93,0.00,,,0.00,WeatherDisplay:10.37,2013-05-29 05:05:00,
2013-05-29 00:10:00,62.6,60.2,28.54,East,90,3.5,3.5,92,0.00,,,0.00,WeatherDisplay:10.37,2013-05-29 05:10:00,
2013-05-29 00:15:00,62.2,59.9,28.54,East,90,3.5,3.5,92,0.00,,,0.00,WeatherDisplay:10.37,2013-05-29 05:15:00,
2013-05-29 00:20:00,62.2,60.5,28.53,East,90,3.5,3.5,94,0.00,,,0.00,WeatherDisplay:10.37,2013-05-29 05:20:00,
2013-05-29 00:25:00,62.6,61.1,28.53,NE,45,4.6,4.6,95,0.00,,,0.00,WeatherDisplay:10.37,2013-05-29 05:25:00,
2013-05-29 00:31:00,62.8,61.3,28.53,NE,45,5.8,5.8,95,0.00,,,0.00,WeatherDisplay:10.37,2013-05-29 05:31:00,
2013-05-29 00:36:00,63.7,62.5,28.53,East,90,8.1,8.1,96,0.00,,,0.00,WeatherDisplay:10.37,2013-05-29 05:36:00,
2013-05-29 00:41:00,64.6,62.8,28.53,NE,45,5.8,5.8,94,0.00,,,0.00,WeatherDisplay:10.37,2013-05-29 05:41:00,
2013-05-29 00:46:00,65.1,63.0,28.53,East,90,6.9,6.9,93,0.00,,,0.00,WeatherDisplay:10.37,2013-05-29 05:46:00,
2013-05-29 00:51:00,65.7,63.0,28.53,SE,135,8.1,8.1,91,0.00,,,0.00,WeatherDisplay:10.37,2013-05-29 05:51:00,
2013-05-29 00:57:00,66.4,63.0,28.52,SE,135,9.2,9.2,89,0.00,,,0.00,WeatherDisplay:10.37,2013-05-29 05:57:00,
2013-05-29 01:02:00,66.4,62.7,28.51,East,90,10.4,10.4,88,0.00,,,0.00,WeatherDisplay:10.37,2013-05-29 06:02:00,
2013-05-29 01:07:00,66.6,62.6,28.51,ENE,68,10.4,10.4,87,0.00,,,0.00,WeatherDisplay:10.37,2013-05-29 06:07:00,
2013-05-29 01:12:00,66.6,62.6,28.50,East,90,9.2,9.2,87,0.00,,,0.00,WeatherDisplay:10.37,2013-05-29 06:12:00,
2013-05-29 01:18:00,66.2,62.2,28.51,East,90,5.8,5.8,87,0.00,,,0.00,WeatherDisplay:10.37,2013-05-29 06:18:00,
2013-05-29 01:23:00,66.2,62.2,28.51,NE,45,5.8,5.8,87,0.00,,,0.00,WeatherDisplay:10.37,2013-05-29 06:23:00,
2013-05-29 01:28:00,65.8,61.9,28.50,NE,45,4.6,4.6,87,0.00,,,0.00,WeatherDisplay:10.37,2013-05-29 06:28:00,
2013-05-29 01:33:00,65.3,61.7,28.50,NE,45,5.8,5.8,88,0.00,,,0.00,WeatherDisplay:10.37,2013-05-29 06:33:00,
2013-05-29 01:38:00,64.9,61.9,28.50,NE,45,5.8,5.8,90,0.00,,,0.00,WeatherDisplay:10.37,2013-05-29 06:38:00,
2013-05-29 01:44:00,64.8,62.1,28.50,NE,45,5.8,5.8,91,0.00,,,0.00,WeatherDisplay:10.37,2013-05-29 06:44:00,
2013-05-29 01:49:00,64.8,62.1,28.51,NE,45,3.8,3.8,91,0.00,,,0.00,WeatherDisplay:10.37,2013-05-29 06:49:00,
2013-05-29 01:54:00,64.6,61.9,28.52,South,180,4.6,4.6,91,0.00,,,0.00,WeatherDisplay:10.37,2013-05-29 06:54:00,
2013-05-29 01:59:00,64.4,62.0,28.53,South,180,3.5,3.5,92,0.00,,,0.00,WeatherDisplay:10.37,2013-05-29 06:59:00,
2013-05-29 02:04:00,64.4,62.0,28.53,South,180,3.5,3.5,92,0.00,,,0.00,WeatherDisplay:10.37,2013-05-29 07:04:00,
2013-05-29 02:10:00,64.8,62.4,28.53,South,180,5.8,5.8,92,0.00,,,0.00,WeatherDisplay:10.37,2013-05-29 07:10:00,
2013-05-29 02:15:00,64.6,62.2,28.53,South,179,2.0,6.0,92,0.00,,,0.00,WeatherDisplay:10.37,2013-05-29 07:15:00,
2013-05-29 02:20:00,64.6,62.2,28.53,SE,135,4.6,4.6,92,0.00,,,0.00,WeatherDisplay:10.37,2013-05-29 07:20:00,
2013-05-29 02:25:00,64.6,62.2,28.52,East,90,5.8,5.8,92,0.00,,,0.00,WeatherDisplay:10.37,2013-05-29 07:25:00,
2013-05-29 02:30:00,64.8,62.4,28.51,ESE,112,3.5,3.5,92,0.00,,,0.00,WeatherDisplay:10.37,2013-05-29 07:30:00,
2013-05-29 02:35:00,64.8,62.4,28.51,SE,135,3.5,3.8,92,0.00,,,0.00,WeatherDisplay:10.37,2013-05-29 07:35:00,
2013-05-29 02:40:00,65.1,62.7,28.50,East,90,8.1,8.1,92,0.00,,,0.00,WeatherDisplay:10.37,2013-05-29 07:40:00,
2013-05-29 02:45:00,65.5,62.8,28.50,East,90,5.8,5.8,91,0.00,,,0.00,WeatherDisplay:10.37,2013-05-29 07:45:00,
2013-05-29 02:51:00,65.3,62.3,28.50,East,90,5.8,5.8,90,0.00,,,0.00,WeatherDisplay:10.37,2013-05-29 07:51:00,
2013-05-29 02:56:00,65.5,62.8,28.50,East,90,5.8,5.8,91,0.00,,,0.00,WeatherDisplay:10.37,2013-05-29 07:56:00,
2013-05-29 03:01:00,65.5,62.8,28.51,East,90,3.5,3.5,91,0.00,,,0.00,WeatherDisplay:10.37,2013-05-29 08:01:00,
2013-05-29 03:06:00,65.5,62.8,28.51,East,90,4.6,4.6,91,0.00,,,0.00,WeatherDisplay:10.37,2013-05-29 08:06:00,
2013-05-29 03:12:00,65.5,62.8,28.51,ESE,112,6.9,6.9,91,0.00,,,0.00,WeatherDisplay:10.37,2013-05-29 08:12:00,
2013-05-29 03:17:00,65.3,62.3,28.51,East,90,8.1,8.1,90,0.00,,,0.00,WeatherDisplay:10.37,2013-05-29 08:17:00,
2013-05-29 03:22:00,65.3,62.3,28.52,East,90,8.1,8.1,90,0.00,,,0.00,WeatherDisplay:10.37,2013-05-29 08:22:00,
2013-05-29 03:27:00,65.1,62.7,28.51,SE,135,5.8,5.8,92,0.00,,,0.00,WeatherDisplay:10.37,2013-05-29 08:27:00,
2013-05-29 03:32:00,65.3,62.9,28.51,East,90,10.4,10.4,92,0.00,,,0.00,WeatherDisplay:10.37,2013-05-29 08:32:00,
2013-05-29 03:38:00,65.5,62.8,28.51,SE,135,9.2,9.2,91,0.00,,,0.00,WeatherDisplay:10.37,2013-05-29 08:38:00,
2013-05-29 03:43:00,65.3,62.6,28.51,SE,135,8.1,8.1,91,0.00,,,0.00,WeatherDisplay:10.37,2013-05-29 08:43:00,
2013-05-29 03:48:00,65.3,62.9,28.51,SE,135,10.4,10.4,92,0.00,,,0.00,WeatherDisplay:10.37,2013-05-29 08:48:00,
2013-05-29 03:53:00,65.3,62.9,28.51,SE,135,13.8,13.8,92,0.00,,,0.00,WeatherDisplay:10.37,2013-05-29 08:53:00,
2013-05-29 03:58:00,65.3,62.9,28.51,East,90,10.4,10.4,92,0.00,,,0.00,WeatherDisplay:10.37,2013-05-29 08:58:00,
2013-05-29 04:03:00,65.5,63.1,28.50,SE,135,10.4,10.4,92,0.00,,,0.00,WeatherDisplay:10.37,2013-05-29 09:03:00,
2013-05-29 04:08:00,65.5,63.1,28.51,SE,135,9.2,9.2,92,0.00,,,0.00,WeatherDisplay:10.37,2013-05-29 09:08:00,
2013-05-29 04:13:00,65.5,63.1,28.51,SE,135,8.1,8.1,92,0.00,,,0.00,WeatherDisplay:10.37,2013-05-29 09:13:00,
2013-05-29 04:18:00,65.5,63.1,28.51,SSE,158,8.1,8.1,92,0.00,,,0.00,WeatherDisplay:10.37,2013-05-29 09:18:00,
2013-05-29 04:23:00,65.5,63.1,28.51,SSE,158,8.1,8.1,92,0.00,,,0.00,WeatherDisplay:10.37,2013-05-29 09:23:00,
2013-05-29 04:28:00,65.7,63.3,28.51,SE,135,10.4,10.4,92,0.00,,,0.00,WeatherDisplay:10.37,2013-05-29 09:28:00,
2013-05-29 04:34:00,65.7,63.3,28.50,SE,135,6.9,6.9,92,0.00,,,0.00,WeatherDisplay:10.37,2013-05-29 09:34:00,
2013-05-29 04:39:00,65.7,63.3,28.50,SE,135,8.1,8.1,92,0.00,,,0.00,WeatherDisplay:10.37,2013-05-29 09:39:00,
2013-05-29 04:44:00,65.8,63.5,28.50,SE,135,6.9,6.9,92,0.00,,,0.00,WeatherDisplay:10.37,2013-05-29 09:44:00,
2013-05-29 04:49:00,65.8,63.1,28.50,SE,135,8.1,8.1,91,0.00,,,0.00,WeatherDisplay:10.37,2013-05-29 09:49:00,
2013-05-29 04:54:00,66.0,63.3,28.50,SSE,158,10.4,10.4,91,0.00,,,0.00,WeatherDisplay:10.37,2013-05-29 09:54:00,
2013-05-29 05:00:00,66.4,63.4,28.50,SE,135,12.7,12.7,90,0.00,,,0.00,WeatherDisplay:10.37,2013-05-29 10:00:00,
2013-05-29 05:05:00,66.4,63.4,28.49,SSE,158,8.1,8.1,90,0.00,,,0.00,WeatherDisplay:10.37,2013-05-29 10:05:00,
2013-05-29 05:10:00,66.6,63.2,28.49,SE,135,8.1,8.1,89,0.00,,,0.00,WeatherDisplay:10.37,2013-05-29 10:10:00,
2013-05-29 05:15:00,66.7,63.1,28.49,SE,135,10.4,10.4,88,0.00,,,0.00,WeatherDisplay:10.37,2013-05-29 10:15:00,
2013-05-29 05:21:00,66.7,63.1,28.49,South,180,9.2,9.2,88,0.00,,,0.00,WeatherDisplay:10.37,2013-05-29 10:21:00,
2013-05-29 05:26:00,66.9,63.2,28.49,SE,135,10.4,10.4,88,0.00,,,0.00,WeatherDisplay:10.37,2013-05-29 10:26:00,
2013-05-29 05:31:00,67.1,63.4,28.49,SE,135,10.4,10.4,88,0.00,,,0.00,WeatherDisplay:10.37,2013-05-29 10:31:00,
2013-05-29 05:36:00,66.9,63.2,28.49,SE,135,11.5,11.5,88,0.00,,,0.00,WeatherDisplay:10.37,2013-05-29 10:36:00,
2013-05-29 05:41:00,66.7,63.4,28.48,SE,135,12.7,12.7,89,0.00,,,0.00,WeatherDisplay:10.37,2013-05-29 10:41:00,
2013-05-29 05:46:00,66.6,63.2,28.49,South,180,10.4,10.4,89,0.00,,,0.00,WeatherDisplay:10.37,2013-05-29 10:46:00,
2013-05-29 05:52:00,66.2,63.2,28.49,SE,135,10.4,10.4,90,0.00,,,0.00,WeatherDisplay:10.37,2013-05-29 10:52:00,
2013-05-29 05:57:00,66.2,63.5,28.49,South,180,8.1,8.1,91,0.00,,,0.00,WeatherDisplay:10.37,2013-05-29 10:57:00,
2013-05-29 06:02:00,66.0,63.3,28.49,SE,135,10.4,10.4,91,0.00,,,0.00,WeatherDisplay:10.37,2013-05-29 11:02:00,
2013-05-29 06:07:00,66.0,63.3,28.48,SE,135,10.4,10.4,91,0.00,,,0.00,WeatherDisplay:10.37,2013-05-29 11:07:00,
2013-05-29 06:12:00,66.2,63.5,28.48,South,180,9.2,9.2,91,0.00,,,0.00,WeatherDisplay:10.37,2013-05-29 11:12:00,
2013-05-29 06:18:00,66.6,63.9,28.48,South,180,11.5,11.5,91,0.00,,,0.00,WeatherDisplay:10.37,2013-05-29 11:18:00,
2013-05-29 06:23:00,66.6,63.9,28.49,SE,135,11.5,11.5,91,0.00,,,0.00,WeatherDisplay:10.37,2013-05-29 11:23:00,
2013-05-29 06:28:00,66.6,63.9,28.49,SE,135,8.1,8.1,91,0.00,,,0.00,WeatherDisplay:10.37,2013-05-29 11:28:00,
2013-05-29 06:33:00,66.6,63.9,28.49,SE,135,3.5,3.5,91,0.00,,,0.00,WeatherDisplay:10.37,2013-05-29 11:33:00,
2013-05-29 06:38:00,66.4,63.7,28.49,SE,135,9.2,9.2,91,0.00,,,0.00,WeatherDisplay:10.37,2013-05-29 11:38:00,
2013-05-29 06:43:00,66.4,64.0,28.49,East,90,8.1,8.1,92,0.00,,,0.00,WeatherDisplay:10.37,2013-05-29 11:43:00,
2013-05-29 06:49:00,66.4,64.0,28.49,South,180,8.1,8.1,92,0.00,,,0.00,WeatherDisplay:10.37,2013-05-29 11:49:00,
2013-05-29 06:54:00,66.6,64.2,28.48,East,90,9.2,9.2,92,0.00,,,0.00,WeatherDisplay:10.37,2013-05-29 11:54:00,
2013-05-29 06:59:00,66.6,64.2,28.48,SE,135,8.1,8.1,92,0.00,,,0.00,WeatherDisplay:10.37,2013-05-29 11:59:00,
2013-05-29 07:04:00,66.6,64.2,28.48,SE,135,9.2,9.2,92,0.00,,,0.00,WeatherDisplay:10.37,2013-05-29 12:04:00,
2013-05-29 07:09:00,66.9,64.5,28.49,SE,135,6.9,6.9,92,0.00,,,0.00,WeatherDisplay:10.37,2013-05-29 12:09:00,
2013-05-29 07:14:00,67.1,64.4,28.48,South,180,5.8,5.8,91,0.00,,,0.00,WeatherDisplay:10.37,2013-05-29 12:14:00,
2013-05-29 07:20:00,67.3,64.6,28.48,SE,135,5.8,5.8,91,0.00,,,0.00,WeatherDisplay:10.37,2013-05-29 12:20:00,
2013-05-29 07:25:00,67.5,64.7,28.49,SE,135,9.2,9.2,91,0.00,,,0.00,WeatherDisplay:10.37,2013-05-29 12:25:00,
2013-05-29 07:30:00,67.6,64.9,28.49,SE,132,6.0,9.0,91,0.00,,,0.00,WeatherDisplay:10.37,2013-05-29 12:30:00,
2013-05-29 07:35:00,67.8,65.1,28.49,SE,135,5.8,5.8,91,0.00,,,0.00,WeatherDisplay:10.37,2013-05-29 12:35:00,
2013-05-29 07:40:00,67.8,65.1,28.49,SSE,158,8.1,8.1,91,0.00,,,0.00,WeatherDisplay:10.37,2013-05-29 12:40:00,
2013-05-29 07:46:00,67.6,64.9,28.50,South,180,9.2,9.2,91,0.00,,,0.00,WeatherDisplay:10.37,2013-05-29 12:46:00,
2013-05-29 07:51:00,67.6,65.2,28.50,SE,135,12.7,12.7,92,0.00,,,0.00,WeatherDisplay:10.37,2013-05-29 12:51:00,
2013-05-29 07:56:00,67.8,65.7,28.49,SE,135,10.4,10.4,93,0.00,,,0.00,WeatherDisplay:10.37,2013-05-29 12:56:00,
2013-05-29 08:01:00,67.8,65.4,28.50,South,180,9.2,9.2,92,0.00,,,0.00,WeatherDisplay:10.37,2013-05-29 13:01:00,
2013-05-29 08:06:00,68.0,65.6,28.50,South,180,9.2,9.2,92,0.00,,,0.00,WeatherDisplay:10.37,2013-05-29 13:06:00,
2013-05-29 08:12:00,68.2,65.8,28.50,South,180,10.4,10.4,92,0.00,,,0.00,WeatherDisplay:10.37,2013-05-29 13:12:00,
2013-05-29 08:17:00,68.0,65.6,28.50,South,180,6.9,6.9,92,0.00,,,0.00,WeatherDisplay:10.37,2013-05-29 13:17:00,
2013-05-29 08:22:00,68.2,65.8,28.50,South,180,8.1,8.1,92,0.00,,,0.00,WeatherDisplay:10.37,2013-05-29 13:22:00,
2013-05-29 08:28:00,68.2,65.8,28.50,South,180,6.9,6.9,92,0.00,,,0.00,WeatherDisplay:10.37,2013-05-29 13:28:00,
2013-05-29 08:33:00,68.4,65.9,28.50,South,180,6.9,6.9,92,0.00,,,0.00,WeatherDisplay:10.37,2013-05-29 13:33:00,
2013-05-29 08:38:00,68.5,66.1,28.49,South,180,5.8,5.8,92,0.00,,,0.00,WeatherDisplay:10.37,2013-05-29 13:38:00,
2013-05-29 08:43:00,68.7,66.3,28.49,SSE,158,6.9,6.9,92,0.00,,,0.00,WeatherDisplay:10.37,2013-05-29 13:43:00,
2013-05-29 08:48:00,68.9,66.5,28.49,SSE,158,5.8,5.8,92,0.00,,,0.00,WeatherDisplay:10.37,2013-05-29 13:48:00,
2013-05-29 08:53:00,69.1,66.7,28.49,SE,135,8.1,8.1,92,0.00,,,0.00,WeatherDisplay:10.37,2013-05-29 13:53:00,
2013-05-29 08:58:00,69.3,66.5,28.49,South,180,5.8,5.8,91,0.00,,,0.00,WeatherDisplay:10.37,2013-05-29 13:58:00,
2013-05-29 09:04:00,69.4,66.7,28.49,SE,135,5.8,5.8,91,0.00,,,0.00,WeatherDisplay:10.37,2013-05-29 14:04:00,
2013-05-29 09:09:00,69.4,66.7,28.48,SE,135,5.8,5.8,91,0.00,,,0.00,WeatherDisplay:10.37,2013-05-29 14:09:00,
2013-05-29 09:14:00,69.6,66.9,28.48,South,180,9.2,9.2,91,0.00,,,0.00,WeatherDisplay:10.37,2013-05-29 14:14:00,
2013-05-29 09:19:00,70.0,67.2,28.48,South,180,10.4,10.4,91,0.00,,,0.00,WeatherDisplay:10.37,2013-05-29 14:19:00,
2013-05-29 09:24:00,70.3,67.3,28.48,South,180,10.4,10.4,90,0.00,,,0.00,WeatherDisplay:10.37,2013-05-29 14:24:00,
2013-05-29 09:30:00,70.7,67.3,28.48,SSE,163,7.0,12.0,89,0.00,,,0.00,WeatherDisplay:10.37,2013-05-29 14:30:00,
2013-05-29 09:35:00,71.1,67.7,28.48,South,180,10.4,10.4,89,0.00,,,0.00,WeatherDisplay:10.37,2013-05-29 14:35:00,
2013-05-29 09:40:00,71.2,67.8,28.47,SSE,158,12.7,12.7,89,0.00,,,0.00,WeatherDisplay:10.37,2013-05-29 14:40:00,
2013-05-29 09:45:00,72.0,68.2,28.47,SE,135,12.7,12.7,88,0.00,,,0.00,WeatherDisplay:10.37,2013-05-29 14:45:00,
2013-05-29 09:51:00,71.6,67.5,28.47,South,180,15.0,15.0,87,0.00,,,0.00,WeatherDisplay:10.37,2013-05-29 14:51:00,
2013-05-29 09:56:00,71.4,67.7,28.47,South,180,10.4,10.4,88,0.00,,,0.00,WeatherDisplay:10.37,2013-05-29 14:56:00,
2013-05-29 10:01:00,71.2,67.5,28.47,South,180,11.5,11.5,88,0.00,,,0.00,WeatherDisplay:10.37,2013-05-29 15:01:00,
2013-05-29 10:06:00,71.1,67.7,28.46,South,180,10.4,10.4,89,0.00,,,0.00,WeatherDisplay:10.37,2013-05-29 15:06:00,
2013-05-29 10:11:00,70.9,67.5,28.46,South,180,10.4,10.4,89,0.00,,,0.00,WeatherDisplay:10.37,2013-05-29 15:11:00,
2013-05-29 10:17:00,70.9,67.5,28.45,South,180,13.8,13.8,89,0.00,,,0.00,WeatherDisplay:10.37,2013-05-29 15:17:00,
2013-05-29 10:22:00,70.9,67.8,28.45,SE,135,12.7,12.7,90,0.00,,,0.00,WeatherDisplay:10.37,2013-05-29 15:22:00,
2013-05-29 10:27:00,70.9,67.8,28.45,SE,135,12.7,12.7,90,0.00,,,0.00,WeatherDisplay:10.37,2013-05-29 15:27:00,
2013-05-29 10:32:00,71.2,67.8,28.45,South,180,15.0,15.0,89,0.00,,,0.00,WeatherDisplay:10.37,2013-05-29 15:32:00,
2013-05-29 10:37:00,71.4,68.0,28.45,South,180,15.0,15.0,89,0.00,,,0.00,WeatherDisplay:10.37,2013-05-29 15:37:00,
2013-05-29 10:42:00,72.0,68.2,28.45,SE,135,16.1,16.1,88,0.00,,,0.00,WeatherDisplay:10.37,2013-05-29 15:42:00,
2013-05-29 10:47:00,72.1,68.4,28.45,South,180,17.3,17.3,88,0.00,,,0.00,WeatherDisplay:10.37,2013-05-29 15:47:00,
2013-05-29 10:53:00,72.1,68.1,28.45,SSE,158,20.7,20.7,87,0.00,,,0.00,WeatherDisplay:10.37,2013-05-29 15:53:00,
2013-05-29 10:58:00,72.1,68.1,28.45,SE,135,15.0,15.0,87,0.00,,,0.00,WeatherDisplay:10.37,2013-05-29 15:58:00,
2013-05-29 11:03:00,71.8,68.0,28.45,SE,135,17.3,17.3,88,0.00,,,0.00,WeatherDisplay:10.37,2013-05-29 16:03:00,
2013-05-29 11:08:00,71.8,68.0,28.45,SE,135,18.4,18.4,88,0.00,,,0.00,WeatherDisplay:10.37,2013-05-29 16:08:00,
2013-05-29 11:14:00,72.0,68.2,28.44,SE,135,18.4,18.4,88,0.00,,,0.00,WeatherDisplay:10.37,2013-05-29 16:14:00,
2013-05-29 11:19:00,72.1,68.1,28.44,SE,135,18.4,18.4,87,0.00,,,0.00,WeatherDisplay:10.37,2013-05-29 16:19:00,
2013-05-29 11:24:00,72.1,68.4,28.45,SE,135,19.6,19.6,88,0.00,,,0.00,WeatherDisplay:10.37,2013-05-29 16:24:00,
2013-05-29 11:29:00,72.1,68.1,28.45,South,180,21.9,21.9,87,0.00,,,0.00,WeatherDisplay:10.37,2013-05-29 16:29:00,
2013-05-29 11:34:00,72.3,68.2,28.45,South,180,19.6,19.6,87,0.00,,,0.00,WeatherDisplay:10.37,2013-05-29 16:34:00,
2013-05-29 11:39:00,72.7,67.9,28.45,South,180,25.3,25.3,85,0.00,,,0.00,WeatherDisplay:10.37,2013-05-29 16:39:00,
2013-05-29 11:44:00,73.6,68.1,28.45,SE,135,21.9,21.9,83,0.00,,,0.00,WeatherDisplay:10.37,2013-05-29 16:44:00,
2013-05-29 11:49:00,74.5,69.0,28.45,South,180,20.7,20.7,83,0.00,,,0.00,WeatherDisplay:10.37,2013-05-29 16:49:00,
2013-05-29 11:54:00,74.7,68.4,28.45,South,180,25.3,25.3,81,0.00,,,0.00,WeatherDisplay:10.37,2013-05-29 16:54:00,
2013-05-29 12:00:00,74.8,68.6,28.45,South,180,21.0,28.0,81,0.00,,,0.00,WeatherDisplay:10.37,2013-05-29 17:00:00,
2013-05-29 12:05:00,75.6,68.6,28.45,South,180,32.2,32.2,79,0.00,,,0.00,WeatherDisplay:10.37,2013-05-29 17:05:00,
2013-05-29 12:10:00,75.6,68.6,28.45,South,180,28.8,28.8,79,0.00,,,0.00,WeatherDisplay:10.37,2013-05-29 17:10:00,
2013-05-29 12:15:00,75.6,67.8,28.45,SSW,202,26.5,26.5,77,0.00,,,0.00,WeatherDisplay:10.37,2013-05-29 17:15:00,
2013-05-29 12:20:00,76.6,67.7,28.44,SW,225,26.5,26.5,74,0.00,,,0.00,WeatherDisplay:10.37,2013-05-29 17:20:00,
2013-05-29 12:25:00,77.2,67.5,28.45,South,180,23.0,23.0,72,0.00,,,0.00,WeatherDisplay:10.37,2013-05-29 17:25:00,
2013-05-29 12:31:00,77.9,67.3,28.44,South,180,23.0,23.0,70,0.00,,,0.00,WeatherDisplay:10.37,2013-05-29 17:31:00,
2013-05-29 12:36:00,78.3,66.8,28.45,South,180,27.6,27.6,68,0.00,,,0.00,WeatherDisplay:10.37,2013-05-29 17:36:00,
2013-05-29 12:41:00,78.4,66.6,28.45,South,180,25.1,25.1,67,0.00,,,0.00,WeatherDisplay:10.37,2013-05-29 17:41:00,
2013-05-29 12:46:00,79.0,67.1,28.44,SW,225,20.7,20.7,67,0.00,,,0.00,WeatherDisplay:10.37,2013-05-29 17:46:00,
2013-05-29 12:51:00,79.7,66.0,28.44,South,180,31.1,31.1,63,0.00,,,0.00,WeatherDisplay:10.37,2013-05-29 17:51:00,
2013-05-29 12:56:00,80.2,65.6,28.44,SSW,202,33.4,33.4,61,0.00,,,0.00,WeatherDisplay:10.37,2013-05-29 17:56:00,
2013-05-29 13:02:00,80.2,65.6,28.45,SW,225,28.8,28.8,61,0.00,,,0.00,WeatherDisplay:10.37,2013-05-29 18:02:00,
2013-05-29 13:07:00,80.1,65.4,28.44,South,180,23.0,23.5,61,0.00,,,0.00,WeatherDisplay:10.37,2013-05-29 18:07:00,
2013-05-29 13:12:00,80.2,65.1,28.44,South,180,27.6,27.6,60,0.00,,,0.00,WeatherDisplay:10.37,2013-05-29 18:12:00,
2013-05-29 13:17:00,79.7,64.6,28.43,South,180,28.8,28.8,60,0.00,,,0.00,WeatherDisplay:10.37,2013-05-29 18:17:00,
2013-05-29 13:22:00,80.1,64.4,28.44,South,180,29.9,29.9,59,0.00,,,0.00,WeatherDisplay:10.37,2013-05-29 18:22:00,
2013-05-29 13:27:00,80.2,65.1,28.44,SW,225,20.7,20.7,60,0.00,,,0.00,WeatherDisplay:10.37,2013-05-29 18:27:00,
2013-05-29 13:32:00,80.4,64.8,28.44,South,180,28.8,28.8,59,0.00,,,0.00,WeatherDisplay:10.37,2013-05-29 18:32:00,
2013-05-29 13:37:00,79.7,64.6,28.44,South,180,28.8,28.8,60,0.00,,,0.00,WeatherDisplay:10.37,2013-05-29 18:37:00,
2013-05-29 13:42:00,79.7,65.1,28.45,SW,225,28.9,28.9,61,0.00,,,0.00,WeatherDisplay:10.37,2013-05-29 18:42:00,
2013-05-29 13:48:00,79.5,64.9,28.45,SW,225,17.3,17.3,61,0.00,,,0.00,WeatherDisplay:10.37,2013-05-29 18:48:00,
2013-05-29 13:53:00,79.3,65.6,28.45,SW,225,24.2,24.2,63,0.00,,,0.00,WeatherDisplay:10.37,2013-05-29 18:53:00,
2013-05-29 13:58:00,79.0,65.3,28.44,South,180,31.1,31.1,63,0.00,,,0.00,WeatherDisplay:10.37,2013-05-29 18:58:00,
2013-05-29 14:03:00,78.8,65.1,28.44,SW,225,28.8,28.8,63,0.00,,,0.00,WeatherDisplay:10.37,2013-05-29 19:03:00,
2013-05-29 14:08:00,78.8,65.1,28.43,South,180,28.8,28.8,63,0.00,,,0.00,WeatherDisplay:10.37,2013-05-29 19:08:00,
2013-05-29 14:14:00,79.0,65.3,28.43,South,180,24.2,24.2,63,0.00,,,0.00,WeatherDisplay:10.37,2013-05-29 19:14:00,
2013-05-29 14:19:00,79.2,65.5,28.43,South,180,25.3,25.3,63,0.00,,,0.00,WeatherDisplay:10.37,2013-05-29 19:19:00,
2013-05-29 14:24:00,79.3,64.2,28.42,South,180,29.9,29.9,60,0.00,,,0.00,WeatherDisplay:10.37,2013-05-29 19:24:00,
2013-05-29 14:29:00,79.5,64.9,28.42,South,180,25.3,25.3,61,0.00,,,0.00,WeatherDisplay:10.37,2013-05-29 19:29:00,
2013-05-29 14:34:00,79.7,64.6,28.42,SW,225,28.8,28.8,60,0.00,,,0.00,WeatherDisplay:10.37,2013-05-29 19:34:00,
2013-05-29 14:39:00,80.1,65.4,28.42,South,180,23.0,23.0,61,0.00,,,0.00,WeatherDisplay:10.37,2013-05-29 19:39:00,
2013-05-29 14:45:00,79.9,65.2,28.41,South,180,28.8,28.8,61,0.00,,,0.00,WeatherDisplay:10.37,2013-05-29 19:45:00,
2013-05-29 14:50:00,79.7,66.0,28.41,South,180,23.0,23.0,63,0.00,,,0.00,WeatherDisplay:10.37,2013-05-29 19:50:00,
2013-05-29 14:55:00,80.4,65.7,28.41,South,180,23.0,23.0,61,0.00,,,0.00,WeatherDisplay:10.37,2013-05-29 19:55:00,
2013-05-29 15:00:00,79.5,64.9,28.40,South,180,32.2,32.2,61,0.00,,,0.00,WeatherDisplay:10.37,2013-05-29 20:00:00,
2013-05-29 15:05:00,80.1,64.9,28.39,South,180,23.0,23.0,60,0.00,,,0.00,WeatherDisplay:10.37,2013-05-29 20:05:00,
2013-05-29 15:11:00,80.1,65.4,28.38,South,180,25.3,25.3,61,0.00,,,0.00,WeatherDisplay:10.37,2013-05-29 20:11:00,
2013-05-29 15:16:00,80.1,65.4,28.38,South,180,20.7,20.7,61,0.00,,,0.00,WeatherDisplay:10.37,2013-05-29 20:16:00,
2013-05-29 15:21:00,80.1,66.3,28.38,SE,135,23.0,23.0,63,0.00,,,0.00,WeatherDisplay:10.37,2013-05-29 20:21:00,
2013-05-29 15:26:00,80.2,66.5,28.38,South,180,20.7,20.7,63,0.00,,,0.00,WeatherDisplay:10.37,2013-05-29 20:26:00,
2013-05-29 15:31:00,80.1,65.9,28.38,South,180,17.3,18.4,62,0.00,,,0.00,WeatherDisplay:10.37,2013-05-29 20:31:00,
2013-05-29 15:37:00,79.5,66.3,28.40,South,180,17.3,17.3,64,0.00,,,0.00,WeatherDisplay:10.37,2013-05-29 20:37:00,
2013-05-29 15:42:00,78.3,65.5,28.41,South,180,21.9,21.9,65,0.00,,,0.00,WeatherDisplay:10.37,2013-05-29 20:42:00,
2013-05-29 15:47:00,78.3,66.8,28.41,South,180,21.9,21.9,68,0.00,,,0.00,WeatherDisplay:10.37,2013-05-29 20:47:00,
2013-05-29 15:52:00,77.5,66.1,28.40,SE,135,17.3,17.3,68,0.00,,,0.00,WeatherDisplay:10.37,2013-05-29 20:52:00,
2013-05-29 15:57:00,77.4,66.0,28.41,South,180,15.0,15.0,68,0.00,,,0.00,WeatherDisplay:10.37,2013-05-29 20:57:00,
2013-05-29 16:02:00,77.2,66.6,28.40,South,180,15.0,15.0,70,0.00,,,0.00,WeatherDisplay:10.37,2013-05-29 21:02:00,
2013-05-29 16:08:00,77.2,66.6,28.39,SE,135,13.8,13.8,70,0.00,,,0.00,WeatherDisplay:10.37,2013-05-29 21:08:00,
2013-05-29 16:13:00,77.5,67.4,28.38,SSE,158,15.0,15.0,71,0.00,,,0.00,WeatherDisplay:10.37,2013-05-29 21:13:00,
2013-05-29 16:18:00,77.5,67.0,28.39,SE,135,12.7,12.7,70,0.00,,,0.00,WeatherDisplay:10.37,2013-05-29 21:18:00,
2013-05-29 16:23:00,78.1,67.9,28.40,South,180,10.4,10.4,71,0.00,,,0.00,WeatherDisplay:10.37,2013-05-29 21:23:00,
2013-05-29 16:28:00,78.4,67.4,28.40,SW,225,11.5,11.5,69,0.00,,,0.00,WeatherDisplay:10.37,2013-05-29 21:28:00,
2013-05-29 16:34:00,79.5,68.0,28.39,South,180,19.6,19.6,68,0.00,,,0.00,WeatherDisplay:10.37,2013-05-29 21:34:00,
2013-05-29 16:39:00,80.2,68.7,28.38,SE,135,17.3,17.3,68,0.00,,,0.00,WeatherDisplay:10.37,2013-05-29 21:39:00,
2013-05-29 16:44:00,80.8,68.8,28.38,South,180,19.6,19.6,67,0.00,,,0.00,WeatherDisplay:10.37,2013-05-29 21:44:00,
2013-05-29 16:49:00,80.2,67.4,28.36,SW,225,24.2,24.2,65,0.00,,,0.00,WeatherDisplay:10.37,2013-05-29 21:49:00,
2013-05-29 16:54:00,79.9,67.9,28.36,South,180,25.3,25.3,67,0.00,,,0.00,WeatherDisplay:10.37,2013-05-29 21:54:00,
2013-05-29 16:59:00,79.7,67.3,28.35,South,180,25.3,25.3,66,0.00,,,0.00,WeatherDisplay:10.37,2013-05-29 21:59:00,
2013-05-29 17:04:00,79.7,67.8,28.34,South,180,21.9,21.9,67,0.00,,,0.00,WeatherDisplay:10.37,2013-05-29 22:04:00,
2013-05-29 17:10:00,79.5,67.2,28.33,South,180,26.5,26.5,66,0.00,,,0.00,WeatherDisplay:10.37,2013-05-29 22:10:00,
2013-05-29 17:15:00,79.9,67.9,28.32,South,190,14.0,27.0,67,0.00,,,0.00,WeatherDisplay:10.37,2013-05-29 22:15:00,
2013-05-29 17:20:00,79.9,67.9,28.31,South,180,19.6,19.6,67,0.00,,,0.00,WeatherDisplay:10.37,2013-05-29 22:20:00,
2013-05-29 17:25:00,79.9,67.9,28.30,SE,135,19.6,19.6,67,0.00,,,0.00,WeatherDisplay:10.37,2013-05-29 22:25:00,
2013-05-29 17:30:00,79.3,67.9,28.29,SE,135,23.0,23.0,68,0.00,,,0.00,WeatherDisplay:10.37,2013-05-29 22:30:00,
2013-05-29 17:35:00,78.8,67.8,28.28,SE,135,19.6,19.6,69,0.00,,,0.00,WeatherDisplay:10.37,2013-05-29 22:35:00,
2013-05-29 17:40:00,78.6,67.6,28.27,SE,135,24.2,24.2,69,0.00,,,0.00,WeatherDisplay:10.37,2013-05-29 22:40:00,
2013-05-29 17:45:00,78.6,67.6,28.26,SE,135,20.7,20.7,69,0.00,,,0.00,WeatherDisplay:10.37,2013-05-29 22:45:00,
2013-05-29 17:50:00,78.4,67.8,28.26,SE,135,19.6,19.6,70,0.00,,,0.00,WeatherDisplay:10.37,2013-05-29 22:50:00,
2013-05-29 17:55:00,78.1,67.9,28.28,South,180,23.0,23.0,71,0.00,,,0.00,WeatherDisplay:10.37,2013-05-29 22:55:00,
2013-05-29 18:00:00,77.9,68.1,28.28,SSE,158,21.9,21.9,72,0.00,,,0.00,WeatherDisplay:10.37,2013-05-29 23:00:00,
2013-05-29 18:06:00,77.5,68.2,28.27,SSE,158,23.0,23.0,73,0.00,,,0.00,WeatherDisplay:10.37,2013-05-29 23:06:00,
2013-05-29 18:11:00,77.2,68.2,28.29,South,180,23.0,23.0,74,0.00,,,0.00,WeatherDisplay:10.37,2013-05-29 23:11:00,
2013-05-29 18:16:00,77.0,68.5,28.31,SSE,158,20.7,20.7,75,0.00,,,0.00,WeatherDisplay:10.37,2013-05-29 23:16:00,
2013-05-29 18:22:00,76.6,68.5,28.31,South,180,21.9,21.9,76,0.00,,,0.00,WeatherDisplay:10.37,2013-05-29 23:22:00,
2013-05-29 18:27:00,76.1,68.7,28.32,South,180,29.9,29.9,78,0.00,,,0.00,WeatherDisplay:10.37,2013-05-29 23:27:00,
2013-05-29 18:32:00,75.6,68.6,28.33,South,180,29.9,29.9,79,0.00,,,0.00,WeatherDisplay:10.37,2013-05-29 23:32:00,
2013-05-29 18:37:00,75.0,68.8,28.32,South,180,29.9,29.9,81,0.00,,,0.00,WeatherDisplay:10.37,2013-05-29 23:37:00,
2013-05-29 18:43:00,74.8,69.0,28.32,South,180,28.8,28.8,82,0.00,,,0.00,WeatherDisplay:10.37,2013-05-29 23:43:00,
2013-05-29 18:48:00,74.5,69.0,28.33,South,180,28.8,28.8,83,0.00,,,0.00,WeatherDisplay:10.37,2013-05-29 23:48:00,
2013-05-29 18:53:00,74.3,68.8,28.35,SSE,158,26.5,26.5,83,0.00,,,0.00,WeatherDisplay:10.37,2013-05-29 23:53:00,
2013-05-29 18:58:00,74.1,68.6,28.35,South,180,31.1,31.1,83,0.00,,,0.00,WeatherDisplay:10.37,2013-05-29 23:58:00,
2013-05-29 19:03:00,73.9,69.1,28.36,South,180,23.0,23.0,85,0.00,,,0.00,WeatherDisplay:10.37,2013-05-30 00:03:00,
2013-05-29 19:09:00,73.6,69.1,28.35,SSE,158,26.5,26.5,86,0.00,,,0.00,WeatherDisplay:10.37,2013-05-30 00:09:00,
2013-05-29 19:14:00,72.9,69.1,28.35,South,180,28.8,28.8,88,0.00,,,0.00,WeatherDisplay:10.37,2013-05-30 00:14:00,
2013-05-29 19:19:00,72.3,69.2,28.34,South,180,27.6,27.6,90,0.00,,,0.00,WeatherDisplay:10.37,2013-05-30 00:19:00,
2013-05-29 19:24:00,72.0,69.2,28.35,South,180,27.6,27.6,91,0.00,,,0.00,WeatherDisplay:10.37,2013-05-30 00:24:00,
2013-05-29 19:29:00,71.6,69.2,28.34,South,180,21.9,21.9,92,0.01,RA,,0.01,WeatherDisplay:10.37,2013-05-30 00:29:00,
2013-05-29 19:34:00,71.6,69.5,28.35,SSE,158,32.2,32.2,93,0.01,RA,,0.01,WeatherDisplay:10.37,2013-05-30 00:34:00,
2013-05-29 19:39:00,71.4,69.3,28.35,South,180,28.8,28.8,93,0.01,,,0.01,WeatherDisplay:10.37,2013-05-30 00:39:00,
2013-05-29 19:44:00,71.2,69.4,28.35,SE,135,24.2,24.2,94,0.02,RA,,0.02,WeatherDisplay:10.37,2013-05-30 00:44:00,
2013-05-29 19:50:00,71.1,69.2,28.35,South,180,25.3,25.3,94,0.02,RA,,0.02,WeatherDisplay:10.37,2013-05-30 00:50:00,
2013-05-29 19:55:00,71.1,69.6,28.36,South,180,25.1,25.1,95,0.04,RA,,0.04,WeatherDisplay:10.37,2013-05-30 00:55:00,
2013-05-29 20:00:00,71.1,69.6,28.36,South,180,23.0,23.0,95,0.05,RA,,0.05,WeatherDisplay:10.37,2013-05-30 01:00:00,
2013-05-29 20:05:00,70.9,69.7,28.38,SE,135,23.0,23.0,96,0.05,RA,,0.06,WeatherDisplay:10.37,2013-05-30 01:05:00,
2013-05-29 20:10:00,70.7,69.5,28.38,South,180,25.3,25.3,96,0.07,RA,,0.07,WeatherDisplay:10.37,2013-05-30 01:10:00,
2013-05-29 20:15:00,70.7,69.5,28.38,SSE,158,25.3,25.3,96,0.08,RA,,0.08,WeatherDisplay:10.37,2013-05-30 01:15:00,
2013-05-29 20:20:00,70.9,69.7,28.39,SE,135,23.0,23.0,96,0.09,RA,,0.09,WeatherDisplay:10.37,2013-05-30 01:20:00,
2013-05-29 20:25:00,70.5,69.3,28.39,South,180,17.3,17.3,96,0.09,RA,,0.09,WeatherDisplay:10.37,2013-05-30 01:25:00,
2013-05-29 20:30:00,70.3,69.4,28.38,South,180,20.7,20.7,97,0.08,,,0.09,WeatherDisplay:10.37,2013-05-30 01:30:00,
2013-05-29 20:35:00,70.3,69.4,28.37,South,180,19.6,19.6,97,0.09,RA,,0.11,WeatherDisplay:10.37,2013-05-30 01:35:00,
2013-05-29 20:41:00,70.3,69.4,28.38,South,180,18.4,18.4,97,0.08,RA,,0.11,WeatherDisplay:10.37,2013-05-30 01:41:00,
2013-05-29 20:46:00,70.2,69.6,28.37,SSE,158,13.8,13.8,98,0.08,,,0.11,WeatherDisplay:10.37,2013-05-30 01:46:00,
2013-05-29 20:51:00,69.8,69.2,28.36,SE,135,19.6,19.6,98,0.08,RA,,0.12,WeatherDisplay:10.37,2013-05-30 01:51:00,
2013-05-29 20:56:00,68.9,68.0,28.35,ESE,112,19.6,19.6,97,0.09,RA,,0.13,WeatherDisplay:10.37,2013-05-30 01:56:00,
2013-05-29 21:01:00,68.2,67.0,28.35,ESE,112,17.3,17.3,96,0.08,RA,,0.13,WeatherDisplay:10.37,2013-05-30 02:01:00,
2013-05-29 21:06:00,67.5,66.0,28.36,SE,135,12.7,12.7,95,0.08,RA,,0.15,WeatherDisplay:10.37,2013-05-30 02:06:00,
2013-05-29 21:12:00,67.1,65.6,28.37,South,180,10.4,10.4,95,0.08,RA,,0.17,WeatherDisplay:10.37,2013-05-30 02:12:00,
2013-05-29 21:17:00,66.9,65.4,28.40,South,180,9.2,9.2,95,0.08,RA,,0.17,WeatherDisplay:10.37,2013-05-30 02:17:00,
2013-05-29 21:22:00,66.0,64.2,28.40,SW,225,17.3,17.3,94,0.12,RA,,0.21,WeatherDisplay:10.37,2013-05-30 02:22:00,
2013-05-29 21:27:00,65.1,63.0,28.39,SW,225,10.4,10.4,93,0.13,RA,,0.24,WeatherDisplay:10.37,2013-05-30 02:27:00,
2013-05-29 21:33:00,64.8,62.7,28.38,SW,225,9.2,9.2,93,0.15,RA,,0.25,WeatherDisplay:10.37,2013-05-30 02:33:00,
2013-05-29 21:38:00,64.0,62.6,28.38,South,180,8.1,8.1,95,0.17,RA,,0.27,WeatherDisplay:10.37,2013-05-30 02:38:00,
2013-05-29 21:43:00,63.7,62.5,28.38,South,180,9.2,9.2,96,0.17,RA,,0.27,WeatherDisplay:10.37,2013-05-30 02:43:00,
2013-05-29 21:48:00,63.7,62.8,28.38,SE,135,9.2,9.2,97,0.15,,,0.27,WeatherDisplay:10.37,2013-05-30 02:48:00,
2013-05-29 21:53:00,63.5,62.6,28.38,SE,135,10.4,10.4,97,0.15,,,0.27,WeatherDisplay:10.37,2013-05-30 02:53:00,
2013-05-29 21:59:00,63.5,62.6,28.38,SE,135,8.1,8.1,97,0.14,,,0.27,WeatherDisplay:10.37,2013-05-30 02:59:00,
2013-05-29 22:04:00,63.5,62.6,28.38,SE,135,9.2,9.2,97,0.13,,,0.27,WeatherDisplay:10.37,2013-05-30 03:04:00,
2013-05-29 22:09:00,63.5,62.6,28.37,SE,135,8.1,8.1,97,0.13,RA,,0.28,WeatherDisplay:10.37,2013-05-30 03:09:00,
2013-05-29 22:14:00,63.3,62.7,28.36,SE,135,9.2,9.2,98,0.12,RA,,0.28,WeatherDisplay:10.37,2013-05-30 03:14:00,
2013-05-29 22:20:00,63.3,62.7,28.36,East,90,13.8,13.8,98,0.09,,,0.28,WeatherDisplay:10.37,2013-05-30 03:20:00,
2013-05-29 22:25:00,63.3,62.5,28.36,ESE,112,15.0,15.0,97,0.07,,,0.28,WeatherDisplay:10.37,2013-05-30 03:25:00,
2013-05-29 22:30:00,63.5,62.6,28.35,East,90,10.4,10.4,97,0.04,,,0.28,WeatherDisplay:10.37,2013-05-30 03:30:00,
2013-05-29 22:36:00,63.7,62.8,28.35,ESE,112,11.5,11.5,97,0.02,,,0.28,WeatherDisplay:10.37,2013-05-30 03:36:00,
2013-05-29 22:41:00,63.9,62.7,28.36,SE,135,13.8,13.8,96,0.01,,,0.28,WeatherDisplay:10.37,2013-05-30 03:41:00,
2013-05-29 22:46:00,64.0,62.9,28.36,East,90,12.7,12.7,96,0.01,,,0.28,WeatherDisplay:10.37,2013-05-30 03:46:00,
2013-05-29 22:51:00,64.2,63.4,28.36,SE,135,12.7,12.7,97,0.01,,,0.28,WeatherDisplay:10.37,2013-05-30 03:51:00,
2013-05-29 22:56:00,64.4,63.5,28.36,SE,135,10.4,10.4,97,0.01,,,0.28,WeatherDisplay:10.37,2013-05-30 03:56:00,
2013-05-29 23:01:00,64.4,63.5,28.36,SE,135,15.0,15.0,97,0.01,,,0.28,WeatherDisplay:10.37,2013-05-30 04:01:00,
2013-05-29 23:04:00,64.4,63.5,28.36,SE,135,10.4,10.4,97,0.01,,,0.28,WeatherDisplay:10.37,2013-05-30 04:04:00,
2013-05-29 23:09:00,64.4,63.8,28.36,South,180,12.7,12.7,98,0.00,,,0.28,WeatherDisplay:10.37,2013-05-30 04:09:00,
2013-05-29 23:14:00,64.6,64.0,28.37,SE,135,16.1,16.1,98,0.00,,,0.28,WeatherDisplay:10.37,2013-05-30 04:14:00,
2013-05-29 23:19:00,64.6,64.3,28.38,SE,135,20.7,20.7,99,0.00,,,0.28,WeatherDisplay:10.37,2013-05-30 04:19:00,
2013-05-29 23:24:00,64.6,64.3,28.38,South,180,15.0,15.0,99,0.00,,,0.28,WeatherDisplay:10.37,2013-05-30 04:24:00,
2013-05-29 23:30:00,64.4,64.1,28.37,SSE,164,14.0,21.0,99,0.00,,,0.28,WeatherDisplay:10.37,2013-05-30 04:30:00,
2013-05-29 23:35:00,64.2,63.9,28.37,SE,135,19.6,19.6,99,0.00,,,0.28,WeatherDisplay:10.37,2013-05-30 04:35:00,
2013-05-29 23:40:00,64.2,63.9,28.37,South,180,17.3,17.3,99,0.00,,,0.28,WeatherDisplay:10.37,2013-05-30 04:40:00,
2013-05-29 23:45:00,64.2,63.6,28.36,SSE,150,10.0,21.0,98,0.00,,,0.28,WeatherDisplay:10.37,2013-05-30 04:45:00,
2013-05-29 23:50:00,64.2,63.6,28.35,SE,135,15.0,15.0,98,0.00,,,0.28,WeatherDisplay:10.37,2013-05-30 04:50:00,
2013-05-29 23:55:00,64.2,63.6,28.35,SE,135,16.1,16.1,98,0.00,,,0.28,WeatherDisplay:10.37,2013-05-30 04:55:00,